Time;durP1;ratioP1;P1;durP2;ratioP2;P2;SDS_P1;SDS_P2;PMS_P1;PMS_P2;Temp;Humidity;BMP_temperature;BMP_pressure;BME280_temperature;BME280_humidity;BME280_pressure;Samples;Min_cycle;Max_cycle;Signal;HPM_P1;HPM_P2
2021/06/24 00:02:07;;;;;;;15.57;5.18;;;;;;;;;;5024450;28;20550;-42
2021/06/24 00:04:33;;;;;;;22.05;5.60;;;;;;;;;;5034733;28;20094;-43
2021/06/24 00:06:59;;;;;;;18.63;5.93;;;;;;;;;;5024399;28;20086;-43
2021/06/24 00:09:25;;;;;;;16.42;4.20;;;;;;;;;;5024335;28;20120;-43
2021/06/24 00:11:51;;;;;;;14.20;4.20;;;;;;;;;;5024453;28;20029;-44
2021/06/24 00:14:17;;;;;;;19.33;4.72;;;;;;;;;;5023827;28;20198;-43
2021/06/24 00:16:45;;;;;;;20.58;4.75;;;;;;;;;;5024028;28;20025;-44
2021/06/24 00:19:11;;;;;;;13.35;4.00;;;;;;;;;;5023953;28;20032;-44
2021/06/24 00:21:40;;;;;;;15.90;4.03;;;;;;;;;;5024467;28;20138;-44
2021/06/24 00:24:06;;;;;;;21.90;5.03;;;;;;;;;;5025162;28;20049;-43
2021/06/24 00:26:32;;;;;;;25.10;4.68;;;;;;;;;;5023739;28;20017;-44
2021/06/24 00:28:58;;;;;;;14.35;4.72;;;;;;;;;;5024239;28;20028;-43
2021/06/24 00:31:24;;;;;;;16.10;5.30;;;;;;;;;;5023873;28;20025;-43
2021/06/24 00:33:50;;;;;;;17.10;5.55;;;;;;;;;;5024060;28;20122;-44
2021/06/24 00:36:20;;;;;;;18.88;5.45;;;;;;;;;;5023845;28;20035;-44
2021/06/24 00:38:46;;;;;;;13.50;5.57;;;;;;;;;;5023753;28;20590;-43
2021/06/24 00:41:13;;;;;;;24.95;8.63;;;;;;;;;;5023643;28;20732;-44
2021/06/24 00:43:40;;;;;;;14.38;5.68;;;;;;;;;;5024418;28;20026;-42
2021/06/24 00:46:08;;;;;;;26.65;6.60;;;;;;;;;;5023477;28;20040;-43
2021/06/24 00:48:34;;;;;;;15.35;6.45;;;;;;;;;;5023602;28;20014;-43
2021/06/24 00:51:00;;;;;;;20.42;6.50;;;;;;;;;;5038466;28;20347;-43
2021/06/24 00:53:29;;;;;;;24.40;7.88;;;;;;;;;;5023330;28;20468;-43
2021/06/24 00:55:58;;;;;;;17.67;7.13;;;;;;;;;;5022327;28;20031;-43
2021/06/24 00:58:28;;;;;;;20.23;6.30;;;;;;;;;;5033301;28;20144;-43
2021/06/24 01:00:55;;;;;;;16.80;5.35;;;;;;;;;;5023362;28;20036;-43
2021/06/24 01:03:21;;;;;;;14.20;5.07;;;;;;;;;;5023123;28;20025;-43
2021/06/24 01:05:48;;;;;;;15.05;4.90;;;;;;;;;;5023197;28;20045;-43
2021/06/24 01:08:15;;;;;;;12.77;5.32;;;;;;;;;;5023174;28;20132;-43
2021/06/24 01:10:43;;;;;;;16.20;5.80;;;;;;;;;;5022782;28;20029;-43
2021/06/24 01:13:10;;;;;;;22.52;6.63;;;;;;;;;;5024371;28;20025;-43
2021/06/24 01:15:36;;;;;;;23.90;6.75;;;;;;;;;;5022784;28;20053;-43
2021/06/24 01:18:03;;;;;;;16.48;5.50;;;;;;;;;;5023026;28;20029;-43
2021/06/24 01:20:34;;;;;;;21.98;6.05;;;;;;;;;;5022991;28;20457;-42
2021/06/24 01:23:03;;;;;;;20.13;4.53;;;;;;;;;;5023056;28;20505;-43
2021/06/24 01:25:31;;;;;;;17.85;4.97;;;;;;;;;;5023871;28;20405;-43
2021/06/24 01:27:58;;;;;;;17.58;6.82;;;;;;;;;;5023965;28;20017;-43
2021/06/24 01:30:25;;;;;;;15.40;5.85;;;;;;;;;;5022618;28;20021;-44
2021/06/24 01:32:51;;;;;;;22.30;5.72;;;;;;;;;;5037378;28;20414;-44
2021/06/24 01:35:28;;;;;;;19.75;8.60;;;;;;;;;;5022581;28;20021;-44
2021/06/24 01:38:07;;;;;;;17.65;5.53;;;;;;;;;;5042753;28;20060;-45
2021/06/24 01:40:34;;;;;;;19.52;5.22;;;;;;;;;;5053306;28;20094;-45
2021/06/24 01:43:00;;;;;;;24.15;5.35;;;;;;;;;;5053051;28;20063;-45
2021/06/24 01:45:27;;;;;;;22.33;4.85;;;;;;;;;;5053167;28;20087;-45
2021/06/24 01:47:53;;;;;;;22.95;4.68;;;;;;;;;;5053424;28;20020;-45
2021/06/24 01:50:21;;;;;;;18.33;4.00;;;;;;;;;;5053108;28;20044;-46
2021/06/24 01:52:48;;;;;;;14.45;3.88;;;;;;;;;;5053025;28;20036;-46
2021/06/24 01:55:15;;;;;;;15.63;3.78;;;;;;;;;;5053002;28;20021;-45
2021/06/24 01:57:41;;;;;;;22.80;3.88;;;;;;;;;;5053071;28;20075;-45
2021/06/24 02:00:11;;;;;;;19.75;4.45;;;;;;;;;;5053213;28;20037;-46
2021/06/24 02:02:37;;;;;;;10.88;3.92;;;;;;;;;;5052817;28;20025;-44
2021/06/24 02:05:04;;;;;;;24.60;4.10;;;;;;;;;;5052910;28;20032;-45
2021/06/24 02:07:30;;;;;;;10.63;3.45;;;;;;;;;;5052836;28;20059;-57
2021/06/24 02:09:56;;;;;;;13.55;3.40;;;;;;;;;;5052964;28;20037;-53
2021/06/24 02:12:22;;;;;;;23.55;3.50;;;;;;;;;;5052934;28;20029;-54
2021/06/24 02:14:49;;;;;;;20.52;3.65;;;;;;;;;;5052586;28;20132;-44
2021/06/24 02:17:15;;;;;;;14.18;3.47;;;;;;;;;;5052875;28;20032;-46
2021/06/24 02:19:41;;;;;;;14.90;2.97;;;;;;;;;;5052720;28;20033;-45
2021/06/24 02:22:07;;;;;;;13.98;3.85;;;;;;;;;;5052758;28;20025;-45
2021/06/24 02:24:33;;;;;;;10.70;2.42;;;;;;;;;;5052638;28;20025;-45
2021/06/24 02:26:59;;;;;;;12.70;2.88;;;;;;;;;;5052827;28;20101;-45
2021/06/24 02:29:25;;;;;;;18.85;3.60;;;;;;;;;;5052572;28;20029;-45
2021/06/24 02:31:51;;;;;;;9.50;3.08;;;;;;;;;;5052695;28;20492;-45
2021/06/24 02:34:18;;;;;;;15.85;3.58;;;;;;;;;;5052951;28;20461;-45
2021/06/24 02:36:44;;;;;;;11.68;3.47;;;;;;;;;;5052498;28;20496;-45
2021/06/24 02:39:10;;;;;;;13.00;3.45;;;;;;;;;;5052518;28;20032;-43
2021/06/24 02:41:36;;;;;;;15.68;3.40;;;;;;;;;;5052812;28;20067;-43
2021/06/24 02:44:03;;;;;;;13.93;3.20;;;;;;;;;;5052462;28;20035;-43
2021/06/24 02:46:29;;;;;;;15.63;3.40;;;;;;;;;;5052601;28;20147;-43
2021/06/24 02:48:55;;;;;;;12.05;3.58;;;;;;;;;;5052992;28;20048;-43
2021/06/24 02:51:21;;;;;;;15.57;3.20;;;;;;;;;;5052495;28;20028;-44
2021/06/24 02:53:47;;;;;;;25.55;3.63;;;;;;;;;;5052303;28;20025;-44
2021/06/24 02:56:13;;;;;;;19.70;3.28;;;;;;;;;;5052292;28;20032;-43
2021/06/24 02:58:40;;;;;;;11.68;3.10;;;;;;;;;;5052401;28;20056;-43
2021/06/24 03:01:08;;;;;;;13.23;3.80;;;;;;;;;;5052921;28;20029;-45
2021/06/24 03:03:34;;;;;;;14.25;3.20;;;;;;;;;;5052271;28;20028;-44
2021/06/24 03:06:00;;;;;;;15.32;3.88;;;;;;;;;;5052304;28;20105;-43
2021/06/24 03:08:26;;;;;;;15.75;3.83;;;;;;;;;;5051203;28;20385;-44
2021/06/24 03:10:52;;;;;;;17.40;3.90;;;;;;;;;;5052340;28;20096;-43
2021/06/24 03:13:19;;;;;;;19.27;4.97;;;;;;;;;;5051928;28;20422;-43
2021/06/24 03:15:45;;;;;;;20.98;7.75;;;;;;;;;;5052154;28;20032;-43
2021/06/24 03:18:12;;;;;;;21.80;7.30;;;;;;;;;;5052718;28;20041;-43
2021/06/24 03:20:38;;;;;;;20.25;5.47;;;;;;;;;;5055397;28;20493;-42
2021/06/24 03:23:04;;;;;;;16.70;5.30;;;;;;;;;;5056046;28;20028;-44
2021/06/24 03:25:30;;;;;;;19.33;5.13;;;;;;;;;;5055614;28;20064;-43
2021/06/24 03:27:56;;;;;;;15.15;4.15;;;;;;;;;;5055735;28;20021;-43
2021/06/24 03:30:25;;;;;;;20.50;6.07;;;;;;;;;;5055906;28;20031;-43
2021/06/24 03:32:51;;;;;;;21.27;5.00;;;;;;;;;;5055664;28;20446;-44
2021/06/24 03:35:17;;;;;;;17.02;4.35;;;;;;;;;;5054477;28;20025;-44
2021/06/24 03:37:44;;;;;;;19.20;3.97;;;;;;;;;;5055527;28;20040;-43
2021/06/24 03:40:15;;;;;;;12.05;4.53;;;;;;;;;;5055344;28;20040;-44
2021/06/24 03:42:41;;;;;;;;;;;;;;;;;;5056045;28;20024;-44
2021/06/24 03:45:07;;;;;;;13.15;3.20;;;;;;;;;;5055668;28;20000;-44
2021/06/24 03:47:34;;;;;;;18.40;4.03;;;;;;;;;;5055521;28;20021;-44
2021/06/24 03:50:00;;;;;;;22.55;4.18;;;;;;;;;;5055474;28;20059;-44
2021/06/24 03:52:26;;;;;;;14.40;3.55;;;;;;;;;;5055305;28;20469;-44
2021/06/24 03:54:52;;;;;;;10.90;2.78;;;;;;;;;;5055487;28;20036;-44
2021/06/24 03:57:18;;;;;;;17.75;3.67;;;;;;;;;;5053954;28;20061;-44
2021/06/24 03:59:44;;;;;;;12.68;2.80;;;;;;;;;;5055199;28;20128;-44
2021/06/24 04:02:10;;;;;;;16.15;3.42;;;;;;;;;;5054047;28;20033;-44
2021/06/24 04:04:36;;;;;;;15.43;3.60;;;;;;;;;;5055109;28;20139;-44
2021/06/24 04:07:02;;;;;;;20.02;3.83;;;;;;;;;;5054895;28;20078;-43
2021/06/24 04:09:28;;;;;;;11.20;4.32;;;;;;;;;;5054959;28;20025;-44
2021/06/24 04:11:54;;;;;;;16.50;4.72;;;;;;;;;;5054912;28;20029;-44
2021/06/24 04:14:21;;;;;;;20.60;5.82;;;;;;;;;;5054803;28;20041;-44
2021/06/24 04:16:47;;;;;;;14.18;3.35;;;;;;;;;;5055021;28;20433;-44
2021/06/24 04:19:14;;;;;;;17.58;5.18;;;;;;;;;;5054829;28;20069;-44
2021/06/24 04:21:40;;;;;;;15.88;5.95;;;;;;;;;;5054729;28;20029;-45
2021/06/24 04:24:06;;;;;;;16.42;3.72;;;;;;;;;;5054593;28;20028;-44
2021/06/24 04:26:32;;;;;;;13.18;3.47;;;;;;;;;;5054561;28;20056;-45
2021/06/24 04:28:59;;;;;;;15.57;3.67;;;;;;;;;;5054647;28;20531;-44
2021/06/24 04:31:25;;;;;;;18.65;4.15;;;;;;;;;;5053928;28;20033;-43
2021/06/24 04:33:51;;;;;;;17.88;4.10;;;;;;;;;;5054382;28;20492;-44
2021/06/24 04:36:17;;;;;;;18.90;3.60;;;;;;;;;;5054454;28;20112;-44
2021/06/24 04:38:43;;;;;;;18.38;3.75;;;;;;;;;;5054209;28;20066;-44
2021/06/24 04:41:09;;;;;;;21.88;3.55;;;;;;;;;;5054151;28;20071;-45
2021/06/24 04:43:35;;;;;;;12.07;3.47;;;;;;;;;;5054130;28;20078;-44
2021/06/24 04:46:01;;;;;;;15.50;3.65;;;;;;;;;;5054210;28;20518;-44
2021/06/24 04:48:27;;;;;;;9.52;2.70;;;;;;;;;;5054070;28;20102;-45
2021/06/24 04:50:56;;;;;;;12.60;3.85;;;;;;;;;;5054279;28;20017;-45
2021/06/24 04:53:22;;;;;;;15.32;3.05;;;;;;;;;;5053965;28;20029;-44
2021/06/24 04:55:48;;;;;;;16.83;3.40;;;;;;;;;;5053962;28;20477;-44
2021/06/24 04:58:14;;;;;;;17.55;3.08;;;;;;;;;;5054147;28;20078;-45
2021/06/24 05:00:40;;;;;;;12.75;3.10;;;;;;;;;;5053740;28;20029;-44
2021/06/24 05:03:10;;;;;;;16.58;3.65;;;;;;;;;;5054046;28;20025;-45
2021/06/24 05:05:36;;;;;;;12.98;3.15;;;;;;;;;;5053972;28;20028;-45
2021/06/24 05:08:07;;;;;;;9.80;3.00;;;;;;;;;;5053763;28;20075;-45
2021/06/24 05:10:33;;;;;;;;;;;;;;;;;;5054086;28;20036;-42
2021/06/24 05:12:59;;;;;;;14.45;3.17;;;;;;;;;;5053728;28;19908;-44
2021/06/24 05:15:25;;;;;;;17.48;3.22;;;;;;;;;;5053784;28;20153;-44
2021/06/24 05:17:52;;;;;;;9.10;3.03;;;;;;;;;;5053576;28;20031;-44
2021/06/24 05:20:18;;;;;;;17.58;3.42;;;;;;;;;;5053595;28;20497;-45
2021/06/24 05:22:44;;;;;;;12.60;2.78;;;;;;;;;;5053539;28;20385;-44
2021/06/24 05:25:11;;;;;;;13.15;3.20;;;;;;;;;;5053562;28;20035;-45
2021/06/24 05:27:37;;;;;;;12.75;3.97;;;;;;;;;;5053818;28;20025;-44
2021/06/24 05:30:04;;;;;;;13.88;3.40;;;;;;;;;;5053477;28;20104;-45
2021/06/24 05:32:30;;;;;;;10.48;2.90;;;;;;;;;;5053591;28;20078;-44
2021/06/24 05:34:56;;;;;;;14.48;3.38;;;;;;;;;;5053336;28;20481;-44
2021/06/24 05:37:22;;;;;;;17.10;3.88;;;;;;;;;;5053242;28;20054;-43
2021/06/24 05:39:50;;;;;;;12.05;3.30;;;;;;;;;;5053371;28;20033;-43
2021/06/24 05:42:16;;;;;;;11.18;3.05;;;;;;;;;;5052958;28;20066;-43
2021/06/24 05:44:43;;;;;;;20.35;3.63;;;;;;;;;;5053235;28;20381;-45
2021/06/24 05:47:09;;;;;;;18.42;3.72;;;;;;;;;;5053197;28;20082;-44
2021/06/24 05:49:35;;;;;;;14.93;3.22;;;;;;;;;;5053285;28;20060;-43
2021/06/24 05:52:01;;;;;;;15.68;3.17;;;;;;;;;;5053077;28;20108;-43
2021/06/24 05:54:27;;;;;;;17.50;3.90;;;;;;;;;;5053232;28;20036;-44
2021/06/24 05:56:53;;;;;;;16.55;3.85;;;;;;;;;;5052933;28;20025;-44
2021/06/24 05:59:19;;;;;;;19.63;4.00;;;;;;;;;;5052954;28;20025;-44
2021/06/24 06:01:48;;;;;;;12.70;3.40;;;;;;;;;;5053043;28;20052;-44
2021/06/24 06:04:17;;;;;;;11.18;3.20;;;;;;;;;;5053127;28;20454;-44
2021/06/24 06:06:44;;;;;;;15.52;4.03;;;;;;;;;;5052924;28;20128;-43
2021/06/24 06:09:10;;;;;;;16.52;3.00;;;;;;;;;;5052974;28;20033;-44
2021/06/24 06:11:36;;;;;;;15.50;2.97;;;;;;;;;;5052994;28;20025;-44
2021/06/24 06:14:03;;;;;;;9.80;3.17;;;;;;;;;;5052666;28;20091;-44
2021/06/24 06:16:29;;;;;;;10.40;3.38;;;;;;;;;;5052947;28;20068;-44
2021/06/24 06:18:55;;;;;;;17.55;3.83;;;;;;;;;;5052807;28;20056;-44
2021/06/24 06:21:22;;;;;;;13.85;3.90;;;;;;;;;;5052950;28;20090;-43
2021/06/24 06:23:48;;;;;;;19.30;3.90;;;;;;;;;;5052683;28;20029;-44
2021/06/24 06:26:14;;;;;;;11.02;4.10;;;;;;;;;;5052606;28;20025;-44
2021/06/24 06:28:40;;;;;;;13.55;3.92;;;;;;;;;;5052652;28;20078;-43
2021/06/24 06:31:07;;;;;;;14.63;4.18;;;;;;;;;;5052666;28;20028;-44
2021/06/24 06:33:33;;;;;;;10.98;3.67;;;;;;;;;;5052740;28;20029;-44
2021/06/24 06:35:59;;;;;;;16.83;4.13;;;;;;;;;;5052417;28;20021;-44
2021/06/24 06:38:25;;;;;;;18.23;3.80;;;;;;;;;;5052244;28;20382;-43
2021/06/24 06:40:51;;;;;;;15.77;4.47;;;;;;;;;;5052339;28;20039;-42
2021/06/24 06:43:19;;;;;;;12.95;3.80;;;;;;;;;;5052371;28;20028;-43
2021/06/24 06:45:46;;;;;;;18.42;3.63;;;;;;;;;;5052489;28;20051;-43
2021/06/24 06:48:12;;;;;;;13.48;4.38;;;;;;;;;;5051754;28;20049;-43
2021/06/24 06:50:41;;;;;;;22.67;4.15;;;;;;;;;;5051604;28;20071;-44
2021/06/24 06:53:07;;;;;;;19.20;3.85;;;;;;;;;;5051751;28;20032;-43
2021/06/24 06:55:37;;;;;;;16.10;4.07;;;;;;;;;;5055159;28;20017;-43
2021/06/24 06:58:03;;;;;;;12.48;3.67;;;;;;;;;;5053332;28;20021;-43
2021/06/24 07:00:30;;;;;;;17.15;3.85;;;;;;;;;;5055513;28;20044;-43
2021/06/24 07:02:57;;;;;;;15.57;4.28;;;;;;;;;;5055581;28;20021;-43
2021/06/24 07:05:23;;;;;;;17.25;4.13;;;;;;;;;;5055519;28;20021;-43
2021/06/24 07:07:49;;;;;;;22.02;4.25;;;;;;;;;;5055345;28;20067;-43
2021/06/24 07:10:16;;;;;;;12.95;4.03;;;;;;;;;;5055813;28;20025;-43
2021/06/24 07:12:42;;;;;;;16.58;4.40;;;;;;;;;;5055702;28;20028;-43
2021/06/24 07:15:08;;;;;;;14.82;4.40;;;;;;;;;;5055991;28;20056;-43
2021/06/24 07:17:34;;;;;;;17.17;3.85;;;;;;;;;;5055825;28;20021;-42
2021/06/24 07:20:01;;;;;;;18.50;4.80;;;;;;;;;;5055761;28;20055;-43
2021/06/24 07:22:28;;;;;;;13.63;4.13;;;;;;;;;;5055458;28;20127;-43
2021/06/24 07:24:56;;;;;;;11.10;4.00;;;;;;;;;;5055208;28;20540;-44
2021/06/24 07:27:22;;;;;;;10.85;4.28;;;;;;;;;;5055294;28;20021;-44
2021/06/24 07:29:48;;;;;;;14.52;3.92;;;;;;;;;;5052490;28;20028;-44
2021/06/24 07:32:15;;;;;;;16.90;3.85;;;;;;;;;;5055267;28;20013;-43
2021/06/24 07:34:41;;;;;;;13.80;4.60;;;;;;;;;;5054997;28;20021;-43
2021/06/24 07:37:07;;;;;;;14.32;4.25;;;;;;;;;;5057423;28;20021;-44
2021/06/24 07:39:33;;;;;;;15.18;4.28;;;;;;;;;;5075246;28;20472;-42
2021/06/24 07:41:59;;;;;;;15.57;4.30;;;;;;;;;;5075235;28;20409;-43
2021/06/24 07:44:25;;;;;;;12.40;3.60;;;;;;;;;;5075175;28;20024;-43
2021/06/24 07:46:51;;;;;;;19.85;3.85;;;;;;;;;;5075298;28;20120;-43
2021/06/24 07:49:17;;;;;;;35.05;4.90;;;;;;;;;;5075229;28;20021;-43
2021/06/24 07:51:46;;;;;;;18.05;4.22;;;;;;;;;;5075099;28;20032;-43
2021/06/24 07:54:12;;;;;;;15.90;3.05;;;;;;;;;;5075475;28;20026;-42
2021/06/24 07:56:38;;;;;;;14.13;4.07;;;;;;;;;;5075159;28;20073;-43
2021/06/24 07:59:04;;;;;;;12.30;3.90;;;;;;;;;;5074986;28;20116;-43
2021/06/24 08:01:30;;;;;;;17.63;4.32;;;;;;;;;;5075126;28;20039;-43
2021/06/24 08:03:56;;;;;;;13.60;4.22;;;;;;;;;;5075131;28;20082;-50
2021/06/24 08:06:23;;;;;;;17.02;4.10;;;;;;;;;;5074842;28;20119;-47
2021/06/24 08:08:49;;;;;;;16.58;4.32;;;;;;;;;;5074306;28;20029;-46
2021/06/24 08:11:17;;;;;;;13.02;4.07;;;;;;;;;;5074786;28;20032;-46
2021/06/24 08:13:43;;;;;;;13.57;3.60;;;;;;;;;;5074606;28;20045;-45
2021/06/24 08:16:09;;;;;;;16.17;4.32;;;;;;;;;;5074863;28;20503;-43
2021/06/24 08:18:35;;;;;;;11.65;4.80;;;;;;;;;;5074800;28;20027;-43
2021/06/24 08:21:04;;;;;;;20.27;4.50;;;;;;;;;;5074542;28;20044;-42
2021/06/24 08:23:30;;;;;;;13.13;4.15;;;;;;;;;;5074551;28;20020;-43
2021/06/24 08:25:56;;;;;;;19.98;4.72;;;;;;;;;;5074646;28;20038;-43
2021/06/24 08:28:25;;;;;;;10.80;3.78;;;;;;;;;;5074707;28;20024;-43
2021/06/24 08:30:52;;;;;;;13.95;4.65;;;;;;;;;;5074391;28;20024;-43
2021/06/24 08:33:18;;;;;;;18.13;5.63;;;;;;;;;;5074233;28;20118;-43
2021/06/24 08:35:44;;;;;;;16.40;6.50;;;;;;;;;;5074249;28;20033;-43
2021/06/24 08:38:11;;;;;;;26.48;11.35;;;;;;;;;;5073687;28;20020;-43
2021/06/24 08:40:39;;;;;;;19.45;5.22;;;;;;;;;;5074148;28;20028;-42
2021/06/24 08:43:05;;;;;;;13.80;4.85;;;;;;;;;;5074017;28;20016;-43
2021/06/24 08:45:31;;;;;;;19.67;5.47;;;;;;;;;;5073973;28;20528;-42
2021/06/24 08:47:59;;;;;;;15.93;5.53;;;;;;;;;;5074097;28;20025;-44
2021/06/24 08:50:26;;;;;;;14.48;5.20;;;;;;;;;;5072640;28;20059;-43
2021/06/24 08:52:52;;;;;;;17.85;4.90;;;;;;;;;;5073790;28;20031;-43
2021/06/24 08:55:20;;;;;;;14.00;4.80;;;;;;;;;;5074198;28;20041;-44
2021/06/24 08:57:49;;;;;;;18.13;4.90;;;;;;;;;;5073896;28;20056;-43
2021/06/24 09:00:15;;;;;;;20.30;5.18;;;;;;;;;;5072678;28;20123;-45
2021/06/24 09:02:42;;;;;;;18.63;5.30;;;;;;;;;;5074029;28;20020;-43
2021/06/24 09:05:10;;;;;;;17.67;5.10;;;;;;;;;;5072422;28;20057;-43
2021/06/24 09:07:48;;;;;;;15.13;4.60;;;;;;;;;;5073192;28;20066;-43
2021/06/24 09:10:14;;;;;;;19.80;5.63;;;;;;;;;;5073597;28;20384;-43
2021/06/24 09:12:57;;;;;;;20.58;5.32;;;;;;;;;;5073460;28;20016;-43
2021/06/24 09:15:26;;;;;;;18.55;5.22;;;;;;;;;;5073401;28;20056;-43
2021/06/24 09:17:52;;;;;;;22.00;6.05;;;;;;;;;;5059837;28;20453;-43
2021/06/24 09:20:18;;;;;;;17.60;5.32;;;;;;;;;;5053827;28;20098;-41
2021/06/24 09:23:05;;;;;;;23.15;5.72;;;;;;;;;;5053050;28;20056;-44
2021/06/24 09:25:31;;;;;;;26.38;5.57;;;;;;;;;;5053399;28;20492;-44
2021/06/24 09:27:57;;;;;;;16.50;5.78;;;;;;;;;;5053398;28;20025;-43
2021/06/24 09:30:30;;;;;;;28.15;6.05;;;;;;;;;;5053546;28;20025;-44
2021/06/24 09:32:57;;;;;;;16.55;5.38;;;;;;;;;;5053305;28;20036;-43
2021/06/24 09:35:24;;;;;;;22.95;6.00;;;;;;;;;;5053343;28;20473;-44
2021/06/24 09:38:09;;;;;;;18.45;7.00;;;;;;;;;;5062253;28;20040;-41
2021/06/24 09:40:44;;;;;;;25.58;5.93;;;;;;;;;;5073079;28;20075;-42
2021/06/24 09:43:15;;;;;;;20.08;5.32;;;;;;;;;;5072897;28;20052;-45
2021/06/24 09:45:58;;;;;;;20.42;5.40;;;;;;;;;;5073145;28;20082;-45
2021/06/24 09:48:32;;;;;;;24.42;5.32;;;;;;;;;;5073115;28;20024;-45
2021/06/24 09:51:05;;;;;;;17.40;6.00;;;;;;;;;;5071453;28;20048;-45
2021/06/24 09:53:31;;;;;;;30.23;11.60;;;;;;;;;;5073044;28;20118;-45
2021/06/24 09:55:57;;;;;;;20.67;5.43;;;;;;;;;;5072796;28;20028;-43
2021/06/24 09:58:23;;;;;;;25.30;5.80;;;;;;;;;;5073150;28;20418;-44
2021/06/24 10:00:50;;;;;;;24.83;11.38;;;;;;;;;;5072749;28;20074;-44
2021/06/24 10:03:16;;;;;;;31.38;6.18;;;;;;;;;;5072919;28;20027;-44
2021/06/24 10:05:43;;;;;;;20.13;6.75;;;;;;;;;;5072913;28;20037;-43
2021/06/24 10:08:11;;;;;;;21.42;6.32;;;;;;;;;;5073003;28;20012;-43
2021/06/24 10:10:38;;;;;;;19.50;5.53;;;;;;;;;;5072774;28;20039;-45
2021/06/24 10:13:08;;;;;;;21.45;7.03;;;;;;;;;;5072819;28;20438;-44
2021/06/24 10:15:36;;;;;;;21.83;7.15;;;;;;;;;;5072594;28;20399;-45
2021/06/24 10:18:03;;;;;;;28.98;6.88;;;;;;;;;;5072781;28;20554;-46
2021/06/24 10:20:30;;;;;;;23.17;6.65;;;;;;;;;;5072240;28;20044;-45
2021/06/24 10:23:05;;;;;;;19.15;6.45;;;;;;;;;;5072704;28;20021;-44
2021/06/24 10:25:32;;;;;;;16.70;6.00;;;;;;;;;;5072951;28;20055;-45
2021/06/24 10:27:59;;;;;;;31.83;10.65;;;;;;;;;;5073379;28;20028;-45
2021/06/24 10:30:26;;;;;;;71.72;48.65;;;;;;;;;;5076927;28;20087;-45
2021/06/24 10:33:00;;;;;;;27.02;7.25;;;;;;;;;;5076658;28;20071;-45
2021/06/24 10:35:27;;;;;;;23.63;6.88;;;;;;;;;;5076598;28;20074;-43
2021/06/24 10:37:53;;;;;;;26.10;5.85;;;;;;;;;;5076533;28;20024;-43
2021/06/24 10:40:24;;;;;;;23.33;5.60;;;;;;;;;;5076728;28;20035;-43
2021/06/24 10:42:52;;;;;;;21.27;5.95;;;;;;;;;;5074882;28;20064;-43
2021/06/24 10:45:19;;;;;;;21.65;5.55;;;;;;;;;;5076415;28;20070;-44
2021/06/24 10:47:45;;;;;;;21.73;5.43;;;;;;;;;;5076385;28;20492;-43
2021/06/24 10:50:33;;;;;;;22.67;5.57;;;;;;;;;;5075925;28;20249;-45
2021/06/24 10:52:59;;;;;;;25.77;6.38;;;;;;;;;;5076340;28;20029;-45
2021/06/24 10:55:49;;;;;;;24.30;5.57;;;;;;;;;;5076348;28;20025;-44
2021/06/24 10:58:20;;;;;;;26.33;5.78;;;;;;;;;;5076123;28;20069;-42
2021/06/24 11:00:46;;;;;;;21.48;5.45;;;;;;;;;;5076073;28;20036;-44
2021/06/24 11:03:13;;;;;;;27.35;5.57;;;;;;;;;;5076214;28;20067;-44
2021/06/24 11:05:40;;;;;;;27.77;5.50;;;;;;;;;;5076160;28;20472;-44
2021/06/24 11:08:11;;;;;;;22.83;5.10;;;;;;;;;;5075991;28;20500;-43
2021/06/24 11:10:56;;;;;;;23.65;6.22;;;;;;;;;;5076030;28;20023;-44
2021/06/24 11:13:49;;;;;;;22.73;5.50;;;;;;;;;;5075796;28;20039;-43
2021/06/24 11:16:16;;;;;;;23.60;6.18;;;;;;;;;;5074717;28;20475;-44
2021/06/24 11:18:42;;;;;;;26.30;5.35;;;;;;;;;;5075831;28;20059;-44
2021/06/24 11:21:08;;;;;;;26.73;5.47;;;;;;;;;;5075199;28;20033;-44
2021/06/24 11:23:48;;;;;;;25.05;6.07;;;;;;;;;;5075574;28;20078;-44
2021/06/24 11:26:14;;;;;;;;;;;;;;;;;;5075942;28;20473;-44
2021/06/24 11:28:46;;;;;;;25.52;5.53;;;;;;;;;;5075699;28;19908;-44
2021/06/24 11:31:14;;;;;;;31.60;6.05;;;;;;;;;;5075529;28;20123;-45
2021/06/24 11:33:47;;;;;;;18.52;4.97;;;;;;;;;;5075569;28;20099;-45
2021/06/24 11:36:15;;;;;;;25.65;5.35;;;;;;;;;;5075430;28;20029;-44
2021/06/24 11:38:45;;;;;;;25.77;5.40;;;;;;;;;;5075488;28;20021;-45
2021/06/24 11:41:14;;;;;;;23.38;6.03;;;;;;;;;;5074766;28;20400;-44
2021/06/24 11:43:40;;;;;;;27.98;5.53;;;;;;;;;;5075325;28;20024;-44
2021/06/24 11:46:07;;;;;;;19.98;4.72;;;;;;;;;;5075406;28;20063;-43
2021/06/24 11:48:33;;;;;;;17.20;4.60;;;;;;;;;;5075181;28;20048;-44
2021/06/24 12:04:56;;;;;;;25.27;5.90;;;;;;;;;;5075182;28;20036;-43
2021/06/24 12:07:23;;;;;;;25.55;5.57;;;;;;;;;;5074917;28;20024;-44
2021/06/24 12:09:50;;;;;;;24.30;5.35;;;;;;;;;;5074583;28;20104;-43
2021/06/24 12:12:18;;;;;;;26.90;6.93;;;;;;;;;;5074695;28;20020;-43
2021/06/24 12:14:47;;;;;;;19.90;6.13;;;;;;;;;;5074547;28;20056;-43
2021/06/24 12:17:15;;;;;;;21.05;5.20;;;;;;;;;;5074790;28;20024;-43
2021/06/24 12:19:47;;;;;;;26.80;5.38;;;;;;;;;;5048504;28;20025;-45
2021/06/24 12:22:15;;;;;;;27.80;5.50;;;;;;;;;;5026293;28;20029;-43
2021/06/24 12:24:41;;;;;;;19.13;6.03;;;;;;;;;;5025171;28;20017;-46
2021/06/24 12:27:14;;;;;;;22.58;5.45;;;;;;;;;;5023886;28;20474;-43
2021/06/24 12:29:41;;;;;;;25.02;6.03;;;;;;;;;;5023807;28;20064;-43
2021/06/24 12:32:07;;;;;;;24.45;4.97;;;;;;;;;;5024066;28;20346;-44
2021/06/24 12:34:33;;;;;;;29.63;5.05;;;;;;;;;;5023688;28;20108;-43
2021/06/24 12:36:59;;;;;;;26.63;5.40;;;;;;;;;;5023860;28;20033;-42
2021/06/24 12:39:26;;;;;;;25.98;5.63;;;;;;;;;;5024649;28;20021;-42
2021/06/24 12:41:52;;;;;;;26.65;5.85;;;;;;;;;;5024020;28;20073;-43
2021/06/24 12:44:18;;;;;;;22.17;5.32;;;;;;;;;;5023502;28;20080;-42
2021/06/24 12:46:44;;;;;;;31.10;6.80;;;;;;;;;;5023457;28;20032;-43
2021/06/24 12:49:17;;;;;;;22.88;5.80;;;;;;;;;;5023522;28;20022;-43
2021/06/24 12:51:43;;;;;;;26.23;6.85;;;;;;;;;;5023884;28;20079;-43
2021/06/24 12:54:17;;;;;;;33.60;6.38;;;;;;;;;;5023320;28;20021;-44
2021/06/24 12:56:50;;;;;;;29.00;6.00;;;;;;;;;;5023419;28;20037;-44
2021/06/24 12:59:23;;;;;;;37.25;11.70;;;;;;;;;;5024750;28;20029;-43
2021/06/24 13:01:53;;;;;;;25.15;5.78;;;;;;;;;;5023195;28;20045;-43
2021/06/24 13:04:24;;;;;;;24.02;5.70;;;;;;;;;;5023433;28;20582;-42
2021/06/24 13:06:53;;;;;;;26.95;5.60;;;;;;;;;;5023319;28;20044;-43
2021/06/24 13:09:33;;;;;;;26.63;5.82;;;;;;;;;;5023390;28;20753;-42
2021/06/24 13:12:01;;;;;;;18.55;5.35;;;;;;;;;;5023766;28;20040;-44
2021/06/24 13:14:28;;;;;;;25.58;5.07;;;;;;;;;;5022930;28;20065;-43
2021/06/24 13:16:55;;;;;;;28.70;6.47;;;;;;;;;;5022986;28;20908;-42
2021/06/24 13:19:28;;;;;;;31.92;5.90;;;;;;;;;;5024012;28;20028;-44
2021/06/24 13:22:01;;;;;;;26.05;5.50;;;;;;;;;;5022863;28;20037;-42
2021/06/24 13:24:48;;;;;;;28.13;5.85;;;;;;;;;;5024452;28;20044;-43
2021/06/24 13:27:16;;;;;;;28.33;6.18;;;;;;;;;;5022844;28;20041;-43
2021/06/24 13:29:53;;;;;;;26.63;5.65;;;;;;;;;;5023063;28;20064;-42
2021/06/24 13:32:29;;;;;;;37.55;7.47;;;;;;;;;;5024177;28;20025;-43
2021/06/24 13:34:56;;;;;;;23.80;5.35;;;;;;;;;;5023087;28;20037;-44
2021/06/24 13:37:24;;;;;;;23.15;5.25;;;;;;;;;;5022639;28;20032;-41
2021/06/24 13:39:50;;;;;;;19.45;5.13;;;;;;;;;;5023189;28;20586;-43
2021/06/24 13:42:19;;;;;;;26.70;5.95;;;;;;;;;;5022946;28;20036;-43
2021/06/24 13:44:45;;;;;;;19.58;5.10;;;;;;;;;;5038223;28;20384;-42
2021/06/24 13:47:13;;;;;;;22.80;5.10;;;;;;;;;;5022206;28;20535;-43
2021/06/24 13:49:39;;;;;;;24.05;5.30;;;;;;;;;;5022553;28;20079;-42
2021/06/24 13:52:06;;;;;;;27.42;6.00;;;;;;;;;;5022629;28;20025;-42
2021/06/24 13:54:34;;;;;;;23.63;5.10;;;;;;;;;;5023900;28;20027;-42
2021/06/24 13:57:00;;;;;;;25.80;5.55;;;;;;;;;;5022515;28;20037;-43
2021/06/24 13:59:27;;;;;;;24.48;6.43;;;;;;;;;;5023912;28;20128;-42
2021/06/24 14:01:54;;;;;;;31.33;6.80;;;;;;;;;;5022398;28;20046;-43
2021/06/24 14:04:20;;;;;;;28.42;7.10;;;;;;;;;;5022320;28;20017;-43
2021/06/24 14:06:47;;;;;;;29.20;8.30;;;;;;;;;;5022157;28;20029;-43
2021/06/24 14:09:17;;;;;;;28.30;5.75;;;;;;;;;;5022207;28;20025;-43
2021/06/24 14:11:44;;;;;;;36.60;12.32;;;;;;;;;;5022345;28;20029;-42
2021/06/24 14:14:10;;;;;;;27.88;6.25;;;;;;;;;;5023081;28;20073;-43
2021/06/24 14:16:37;;;;;;;36.80;7.13;;;;;;;;;;5022354;28;20129;-42
2021/06/24 14:19:04;;;;;;;28.65;5.80;;;;;;;;;;5022088;28;20032;-42
2021/06/24 14:21:30;;;;;;;22.05;5.85;;;;;;;;;;5021904;28;20033;-42
2021/06/24 14:23:59;;;;;;;37.05;7.30;;;;;;;;;;5021937;28;20032;-43
2021/06/24 14:26:26;;;;;;;21.25;5.53;;;;;;;;;;5021837;28;20037;-42
2021/06/24 14:28:53;;;;;;;29.15;5.72;;;;;;;;;;5022381;28;20410;-43
2021/06/24 14:31:20;;;;;;;33.03;5.85;;;;;;;;;;5022726;28;20030;-43
2021/06/24 14:33:48;;;;;;;25.17;5.45;;;;;;;;;;5022197;28;20037;-43
2021/06/24 14:36:18;;;;;;;29.30;6.03;;;;;;;;;;5022012;28;20096;-43
2021/06/24 14:38:44;;;;;;;31.27;5.28;;;;;;;;;;5022101;28;20088;-43
2021/06/24 14:41:11;;;;;;;33.22;6.65;;;;;;;;;;5022644;28;20144;-42
2021/06/24 14:43:38;;;;;;;26.23;5.25;;;;;;;;;;5022632;28;20516;-42
2021/06/24 14:46:07;;;;;;;20.50;4.97;;;;;;;;;;5022052;28;20041;-43
2021/06/24 14:48:34;;;;;;;27.15;6.38;;;;;;;;;;5022021;28;20760;-42